»·PEaware :: SKY698 KLVM-6S0

SKY698 :: KLVM-6S0

FLIGHT INFORMATION

Flight Status: Arrived
Operator:
Sky High Charters
More flights by this operator :: More flights under this callsign
Pilot: Ahmad S. (5672)
Aircraft: BEECH AIRCRAFT BARON
(BE58)
More flights by this aircraft type
Origin: KLVM Mission
United States
Destination: 6S0 Big Timber
United States
More flights between these airports :: More routes between these airports
Route: +LVM2 LVM V86 SUBKY
File this flight plan on PilotEdge
Remarks: Scenario 7
Altitude:
(Current/Filed)
9,000ft
Speed:
(Current/Filed)
150kts
Departed: 20-Mar-20 01:13 PM
Arrived: 20-Mar-20 01:42 PM
Distance/Time
Traveled:
21nm/0:29
Distance/Time
To Go:
Arrived

Flight Plot

Page will automatically refresh every two minutes.

Flight plan parsing failed; only flown route is shown


Map Options




Map Legend


Flown Route
Filed Route
Departure Airport
Arrival Airport
Navaid (VOR, NDB)
Fix

Horizontal Profiles

Position Reports

Time Latitude Longitude Heading Altitude Ground
Speed
20-Mar-20 12:58 45.696526 -110.453036 60 4663ft 0kts
20-Mar-20 12:59 45.696526 -110.453036 60 4663ft 0kts
20-Mar-20 13:00 45.696526 -110.453036 60 4663ft 0kts
20-Mar-20 13:01 45.696526 -110.453036 60 4663ft 0kts
20-Mar-20 13:02 45.696526 -110.453036 60 4663ft 0kts
20-Mar-20 13:03 45.696526 -110.453036 60 4663ft 0kts
20-Mar-20 13:04 45.696526 -110.453036 60 4663ft 0kts
20-Mar-20 13:05 45.696526 -110.453036 60 4663ft 0kts
20-Mar-20 13:06 45.696526 -110.453036 60 4663ft 0kts
20-Mar-20 13:07 45.696536 -110.453004 68 4663ft 2kts
20-Mar-20 13:08 45.699401 -110.446057 56 4663ft 36kts
20-Mar-20 13:09 45.700142 -110.441412 47 4663ft 22kts
20-Mar-20 13:10 45.702514 -110.437258 115 4663ft 0kts
20-Mar-20 13:11 45.702512 -110.437252 115 4663ft 0kts
20-Mar-20 13:12 45.700921 -110.439812 234 4663ft 62kts
20-Mar-20 13:13 45.692569 -110.470505 281 5452ft 109kts
20-Mar-20 13:14 45.693272 -110.520826 257 6367ft 145kts
20-Mar-20 13:15 45.700585 -110.574977 341 7197ft 163kts
20-Mar-20 13:16 45.714248 -110.531481 129 8012ft 163kts
20-Mar-20 13:17 45.705358 -110.470331 97 8790ft 153kts
20-Mar-20 13:18 45.705541 -110.410920 84 9604ft 146kts
20-Mar-20 13:19 45.708873 -110.354168 84 10555ft 139kts
20-Mar-20 13:20 45.711935 -110.295896 82 11020ft 165kts
20-Mar-20 13:21 45.716846 -110.224630 82 11005ft 189kts
20-Mar-20 13:22 45.722204 -110.148464 82 11004ft 193kts
20-Mar-20 13:23 45.727231 -110.071229 84 10999ft 195kts
20-Mar-20 13:24 45.728675 -109.993726 89 11012ft 195kts
20-Mar-20 13:25 45.756961 -109.952474 324 11003ft 168kts
20-Mar-20 13:26 45.748477 -110.004805 236 10990ft 148kts
20-Mar-20 13:27 45.750784 -110.060383 283 10407ft 151kts
20-Mar-20 13:28 45.760396 -110.122172 279 9633ft 169kts
20-Mar-20 13:29 45.767341 -110.192360 273 8844ft 184kts
20-Mar-20 13:30 45.770436 -110.266499 269 8067ft 187kts
20-Mar-20 13:31 45.770829 -110.338381 269 7892ft 170kts
20-Mar-20 13:32 45.771298 -110.397339 305 7873ft 132kts
20-Mar-20 13:33 45.786898 -110.374361 95 7901ft 114kts
20-Mar-20 13:34 45.784094 -110.325749 95 7901ft 128kts
20-Mar-20 13:35 45.781672 -110.273129 90 7825ft 142kts
20-Mar-20 13:36 45.782599 -110.207571 89 6877ft 178kts
20-Mar-20 13:37 45.784160 -110.137147 82 6201ft 161kts
20-Mar-20 13:38 45.794026 -110.086755 76 5991ft 121kts
20-Mar-20 13:39 45.800325 -110.039148 86 5445ft 111kts
20-Mar-20 13:40 45.803287 -109.997179 76 4691ft 95kts
20-Mar-20 13:41 45.807605 -109.977890 43 4495ft 9kts
20-Mar-20 13:42 45.808227 -109.977171 73 4495ft 0kts
20-Mar-20 13:43 45.808227 -109.977171 73 4495ft 0kts
20-Mar-20 13:44 45.808227 -109.977171 73 4495ft 0kts
20-Mar-20 13:45 45.808227 -109.977171 73 4495ft 0kts
20-Mar-20 13:46 45.808227 -109.977171 73 4495ft 0kts
20-Mar-20 13:47 45.808227 -109.977171 73 4495ft 0kts
20-Mar-20 13:48 45.808227 -109.977171 73 4495ft 0kts
20-Mar-20 13:49 45.808227 -109.977171 73 4495ft 0kts
20-Mar-20 13:50 45.808227 -109.977171 73 4495ft 0kts
20-Mar-20 13:51 45.808227 -109.977171 73 4495ft 0kts
20-Mar-20 13:52 45.808227 -109.977171 73 4495ft 0kts
20-Mar-20 13:53 45.808227 -109.977171 73 4495ft 0kts
20-Mar-20 13:54 45.808227 -109.977171 73 4495ft 0kts
20-Mar-20 13:55 45.808227 -109.977171 73 4495ft 0kts

Navigation Log

Ident Type
Flight plan parsing failed, navigation log unavailable